Time;durP1;ratioP1;P1;durP2;ratioP2;P2;SDS_P1;SDS_P2;PMS_P1;PMS_P2;Temp;Humidity;BMP_temperature;BMP_pressure;BME280_temperature;BME280_humidity;BME280_pressure;Samples;Min_cycle;Max_cycle;Signal;HPM_P1;HPM_P2
2023/09/23 00:03:08;;;;;;;1.60;1.13;;;18.40;94.60;;;;;;10518938;28;20402;-66
2023/09/23 00:08:09;;;;;;;2.13;1.20;;;18.40;94.60;;;;;;10505051;28;20406;-67
2023/09/23 00:13:09;;;;;;;1.63;1.30;;;18.40;94.50;;;;;;10516202;28;20389;-67
2023/09/23 00:18:11;;;;;;;1.97;1.20;;;18.40;94.50;;;;;;10505049;28;21019;-67
2023/09/23 00:23:11;;;;;;;1.93;1.40;;;18.30;94.50;;;;;;10513923;28;20766;-65
2023/09/23 00:28:13;;;;;;;1.85;1.10;;;18.30;94.50;;;;;;10514928;28;20402;-67
2023/09/23 00:33:16;;;;;;;1.10;1.00;;;18.30;94.50;;;;;;10503108;28;20402;-67
2023/09/23 00:38:17;;;;;;;1.90;1.10;;;18.30;94.50;;;;;;10501507;28;20476;-66
2023/09/23 00:43:18;;;;;;;1.30;1.10;;;18.30;94.40;;;;;;10505923;28;20386;-67
2023/09/23 00:48:20;;;;;;;1.30;1.20;;;18.30;94.40;;;;;;10506800;28;20409;-66
2023/09/23 00:53:23;;;;;;;2.00;1.23;;;18.30;94.50;;;;;;10499772;28;20390;-66
2023/09/23 00:58:26;;;;;;;1.50;1.10;;;18.20;94.50;;;;;;10504134;28;20406;-67
2023/09/23 01:03:27;;;;;;;2.27;1.33;;;18.20;94.40;;;;;;10509531;28;20927;-66
2023/09/23 01:08:32;;;;;;;1.67;1.10;;;18.20;94.50;;;;;;10507394;28;20473;-67
2023/09/23 01:13:33;;;;;;;1.40;1.20;;;18.20;94.40;;;;;;10503370;28;20393;-67
2023/09/23 01:18:34;;;;;;;2.55;1.45;;;18.20;94.50;;;;;;10488032;28;20404;-67
2023/09/23 01:23:36;;;;;;;1.40;1.10;;;18.20;94.50;;;;;;10503908;28;20398;-67
2023/09/23 01:28:37;;;;;;;2.40;1.40;;;18.20;94.50;;;;;;10496599;28;20486;-66
2023/09/23 01:33:38;;;;;;;1.52;1.23;;;18.10;94.50;;;;;;10508032;28;20405;-67
2023/09/23 01:38:41;;;;;;;2.00;1.20;;;18.10;94.50;;;;;;10485748;28;20930;-66
2023/09/23 01:43:41;;;;;;;1.20;1.10;;;18.10;94.50;;;;;;10512899;28;20405;-67
2023/09/23 01:48:42;;;;;;;1.52;1.30;;;18.10;94.50;;;;;;10512460;28;20398;-64
2023/09/23 01:53:43;;;;;;;1.25;1.10;;;18.10;94.50;;;;;;10485437;28;20386;-65
2023/09/23 01:58:43;;;;;;;1.77;1.30;;;18.10;94.40;;;;;;10488811;28;20382;-64
2023/09/23 02:03:45;;;;;;;1.30;1.07;;;18.10;94.40;;;;;;10485643;28;20893;-65
2023/09/23 02:08:46;;;;;;;1.37;1.10;;;18.00;94.40;;;;;;10489377;28;20408;-67
2023/09/23 02:13:47;;;;;;;1.65;1.17;;;18.00;94.40;;;;;;10478295;28;20405;-66
2023/09/23 02:18:50;;;;;;;2.80;1.40;;;18.00;94.30;;;;;;10491336;28;20400;-66
2023/09/23 02:23:51;;;;;;;1.65;1.30;;;18.00;94.30;;;;;;10485935;28;20392;-66
2023/09/23 02:28:52;;;;;;;2.50;1.33;;;18.00;94.30;;;;;;10477714;28;20507;-66
2023/09/23 02:33:52;;;;;;;1.90;1.33;;;18.00;94.30;;;;;;10485887;28;20396;-66
2023/09/23 02:38:53;;;;;;;2.17;1.40;;;17.90;94.20;;;;;;10490647;28;20407;-66
2023/09/23 02:43:53;;;;;;;1.92;1.40;;;17.90;94.20;;;;;;10477045;28;20907;-65
2023/09/23 02:48:55;;;;;;;2.17;1.33;;;17.90;94.20;;;;;;10483114;28;20474;-66
2023/09/23 02:53:56;;;;;;;1.60;1.20;;;17.90;94.20;;;;;;10489139;28;20475;-66
2023/09/23 02:58:57;;;;;;;2.00;1.60;;;17.90;94.10;;;;;;10480423;28;20414;-66
2023/09/23 03:04:06;;;;;;;2.78;1.50;;;17.90;94.20;;;;;;10482845;28;20431;-66
2023/09/23 03:09:10;;;;;;;2.10;1.60;;;17.80;94.10;;;;;;10486900;28;20418;-65
2023/09/23 03:14:17;;;;;;;1.60;1.40;;;17.80;94.10;;;;;;10483098;28;20399;-67
2023/09/23 03:19:22;;;;;;;2.30;1.50;;;17.80;94.10;;;;;;10486328;28;20399;-66
2023/09/23 03:24:25;;;;;;;1.93;1.60;;;17.80;94.10;;;;;;10483853;28;20501;-66
2023/09/23 03:29:32;;;;;;;2.27;1.47;;;17.80;94.00;;;;;;10483825;28;20395;-66
2023/09/23 03:34:34;;;;;;;1.97;1.60;;;17.80;94.00;;;;;;10489417;28;20961;-66
2023/09/23 03:39:35;;;;;;;1.80;1.50;;;17.70;94.00;;;;;;10487910;28;20459;-65
2023/09/23 03:44:37;;;;;;;2.38;1.70;;;17.70;94.00;;;;;;10487360;28;20439;-66
2023/09/23 03:49:38;;;;;;;2.58;1.70;;;17.70;93.90;;;;;;10488389;28;20401;-66
2023/09/23 03:54:38;;;;;;;2.43;1.63;;;17.70;93.90;;;;;;10485739;28;21101;-66
2023/09/23 03:59:39;;;;;;;1.97;1.57;;;17.70;93.90;;;;;;10484492;28;20417;-65
2023/09/23 04:04:40;;;;;;;1.80;1.50;;;17.70;93.90;;;;;;10487257;28;20442;-66
2023/09/23 04:09:40;;;;;;;2.20;1.60;;;17.70;93.90;;;;;;10490673;28;20687;-66
2023/09/23 04:14:41;;;;;;;3.60;1.60;;;17.60;93.90;;;;;;10483477;28;20401;-65
2023/09/23 04:19:42;;;;;;;2.28;1.40;;;17.60;93.80;;;;;;10478162;28;20803;-66
2023/09/23 04:24:43;;;;;;;3.00;1.70;;;17.60;93.90;;;;;;10486452;28;20411;-65
2023/09/23 04:29:44;;;;;;;1.92;1.55;;;17.60;93.80;;;;;;10483790;28;20391;-65
2023/09/23 04:34:45;;;;;;;2.20;1.70;;;17.60;93.80;;;;;;10485060;28;20685;-66
2023/09/23 04:39:46;;;;;;;2.30;1.63;;;17.60;93.80;;;;;;10484077;28;20895;-64
2023/09/23 04:44:47;;;;;;;2.43;1.80;;;17.50;93.80;;;;;;10489810;28;20411;-66
2023/09/23 04:49:48;;;;;;;2.30;1.80;;;17.50;93.80;;;;;;10496179;27;20750;-65
2023/09/23 04:54:53;;;;;;;2.47;1.70;;;17.50;93.70;;;;;;10493220;28;20391;-67
2023/09/23 04:59:54;;;;;;;3.53;1.95;;;17.40;93.70;;;;;;10494755;28;20401;-65
2023/09/23 05:04:55;;;;;;;2.45;1.80;;;17.50;93.70;;;;;;10488712;28;20471;-66
2023/09/23 05:09:55;;;;;;;3.50;2.10;;;17.40;93.70;;;;;;10502220;28;20952;-65
2023/09/23 05:14:57;;;;;;;2.87;2.07;;;17.40;93.70;;;;;;10499954;28;20736;-64
2023/09/23 05:19:58;;;;;;;3.10;2.30;;;17.40;93.70;;;;;;10490566;28;20958;-66
2023/09/23 05:24:59;;;;;;;2.55;2.30;;;17.40;93.70;;;;;;10497375;28;20416;-65
2023/09/23 05:29:59;;;;;;;3.37;2.60;;;17.40;93.70;;;;;;10495068;28;20388;-65
2023/09/23 05:35:00;;;;;;;4.10;2.83;;;17.40;93.70;;;;;;10487623;28;20411;-66
2023/09/23 05:40:01;;;;;;;4.57;3.20;;;17.40;93.70;;;;;;10492741;28;20400;-66
2023/09/23 05:45:02;;;;;;;4.88;3.22;;;17.30;93.70;;;;;;10500321;28;20406;-65
2023/09/23 05:50:04;;;;;;;5.35;3.33;;;17.30;93.70;;;;;;10498620;28;20753;-66
2023/09/23 05:55:05;;;;;;;4.95;3.50;;;17.30;93.70;;;;;;10484619;28;20397;-66
2023/09/23 06:00:08;;;;;;;5.15;3.70;;;17.30;93.70;;;;;;10492539;28;20484;-66
2023/09/23 06:05:08;;;;;;;4.75;3.88;;;17.30;93.70;;;;;;10483551;28;20400;-66
2023/09/23 06:10:10;;;;;;;5.47;4.03;;;17.30;93.70;;;;;;10490224;28;20405;-67
2023/09/23 06:15:11;;;;;;;5.07;4.38;;;17.30;93.70;;;;;;10488315;28;20713;-67
2023/09/23 06:20:12;;;;;;;5.17;4.20;;;17.30;93.70;;;;;;10494053;28;20983;-66
2023/09/23 06:25:12;;;;;;;5.40;4.47;;;17.30;93.70;;;;;;10491778;28;20920;-66
2023/09/23 06:30:15;;;;;;;5.93;4.40;;;17.30;93.70;;;;;;10496700;28;20746;-66
2023/09/23 06:35:16;;;;;;;5.45;4.57;;;17.30;93.70;;;;;;10477684;28;20428;-64
2023/09/23 06:40:16;;;;;;;6.27;4.93;;;17.40;93.80;;;;;;10485337;28;20681;-66
2023/09/23 06:45:18;;;;;;;6.03;4.80;;;17.40;93.80;;;;;;10479396;28;20411;-64
2023/09/23 06:50:19;;;;;;;5.45;4.28;;;17.30;94.00;;;;;;10488326;28;20772;-65
2023/09/23 06:55:20;;;;;;;6.33;4.27;;;17.30;93.90;;;;;;10489391;28;20410;-66
2023/09/23 07:00:22;;;;;;;6.63;4.43;;;17.30;94.00;;;;;;10486015;28;20422;-67
2023/09/23 07:05:23;;;;;;;5.80;4.50;;;17.40;94.00;;;;;;10486556;28;20434;-66
2023/09/23 07:10:23;;;;;;;5.43;4.43;;;17.30;94.00;;;;;;10486335;28;20408;-66
2023/09/23 07:15:24;;;;;;;6.33;4.50;;;17.30;94.00;;;;;;10496050;28;20687;-66
2023/09/23 07:20:26;;;;;;;5.70;4.60;;;17.40;94.00;;;;;;10479611;28;20626;-66
2023/09/23 07:25:27;;;;;;;5.18;4.60;;;17.30;94.00;;;;;;10493020;28;20439;-66
2023/09/23 07:30:31;;;;;;;4.88;4.13;;;17.30;94.00;;;;;;10492205;28;20826;-65
2023/09/23 07:35:33;;;;;;;6.90;5.03;;;17.40;94.10;;;;;;10501355;28;20899;-65
2023/09/23 07:40:39;;;;;;;5.75;4.78;;;17.40;94.10;;;;;;10484464;28;20399;-65
2023/09/23 07:45:39;;;;;;;6.15;4.88;;;17.40;94.20;;;;;;10493336;28;21057;-66
2023/09/23 07:50:40;;;;;;;6.88;4.68;;;17.50;94.20;;;;;;10496210;28;20398;-67
2023/09/23 07:55:41;;;;;;;5.27;4.43;;;17.50;94.30;;;;;;10485599;28;20403;-66
2023/09/23 08:00:42;;;;;;;5.40;4.25;;;17.60;94.30;;;;;;10499188;28;20387;-65
2023/09/23 08:05:42;;;;;;;6.03;4.28;;;17.60;94.30;;;;;;10483515;28;20413;-66
2023/09/23 08:10:43;;;;;;;5.80;4.33;;;17.60;94.20;;;;;;10496506;28;20954;-66
2023/09/23 08:15:45;;;;;;;6.17;4.57;;;17.60;94.10;;;;;;10499020;28;20391;-66
2023/09/23 08:20:46;;;;;;;4.95;4.28;;;17.70;94.20;;;;;;10498666;28;20399;-66
2023/09/23 08:25:46;;;;;;;7.83;4.57;;;17.60;94.10;;;;;;10496079;28;20437;-66
2023/09/23 08:30:49;;;;;;;4.80;4.07;;;17.60;94.20;;;;;;10496128;28;20402;-67
2023/09/23 08:35:51;;;;;;;4.15;3.75;;;17.60;94.10;;;;;;10500213;28;20405;-67
2023/09/23 08:40:52;;;;;;;4.75;4.18;;;17.90;94.20;;;;;;10500102;28;21018;-67
2023/09/23 08:45:55;;;;;;;5.07;4.30;;;17.70;94.20;;;;;;10498062;28;21128;-68
2023/09/23 08:50:56;;;;;;;5.72;4.18;;;17.70;94.20;;;;;;10498066;28;20417;-68
2023/09/23 08:55:58;;;;;;;4.88;3.80;;;17.70;94.10;;;;;;10496348;28;20445;-65
2023/09/23 09:00:59;;;;;;;6.70;4.13;;;17.80;94.10;;;;;;10499242;28;20398;-68
2023/09/23 09:06:00;;;;;;;5.90;4.10;;;17.80;94.10;;;;;;10496350;28;20773;-69
2023/09/23 09:11:00;;;;;;;5.20;4.10;;;17.80;94.20;;;;;;10502289;28;20407;-67
2023/09/23 09:16:07;;;;;;;4.87;3.90;;;17.80;94.10;;;;;;10497195;28;20891;-68
2023/09/23 09:21:08;;;;;;;5.28;3.67;;;17.90;94.20;;;;;;10497698;28;20401;-67
2023/09/23 09:26:09;;;;;;;4.20;3.80;;;17.90;94.20;;;;;;10503642;28;20445;-68
2023/09/23 09:31:12;;;;;;;5.93;3.88;;;17.90;94.10;;;;;;10494543;28;20421;-67
2023/09/23 09:36:21;;;;;;;4.40;3.65;;;18.00;94.40;;;;;;10495241;28;20726;-67
2023/09/23 09:41:32;;;;;;;5.03;4.00;;;18.00;94.40;;;;;;10499674;28;20399;-67
2023/09/23 09:46:35;;;;;;;5.40;3.80;;;18.00;94.40;;;;;;10499326;28;20403;-67
2023/09/23 09:51:39;;;;;;;4.80;3.70;;;18.00;94.50;;;;;;10498433;28;20962;-67
2023/09/23 09:56:41;;;;;;;5.10;3.72;;;18.00;94.40;;;;;;10496838;28;20397;-67
2023/09/23 10:01:42;;;;;;;4.47;3.47;;;18.10;94.40;;;;;;10501676;28;20428;-67
2023/09/23 10:06:53;;;;;;;4.97;3.28;;;18.10;94.40;;;;;;10496275;28;20873;-67
2023/09/23 10:11:55;;;;;;;5.33;3.10;;;18.20;94.50;;;;;;10503168;28;20384;-67
2023/09/23 10:17:04;;;;;;;4.10;3.27;;;18.20;94.50;;;;;;10501000;28;20532;-67
2023/09/23 10:22:11;;;;;;;4.15;3.47;;;18.20;94.40;;;;;;10500616;28;20406;-67
2023/09/23 10:27:11;;;;;;;5.75;3.40;;;18.20;94.50;;;;;;10491018;28;20427;-67
2023/09/23 10:32:14;;;;;;;5.07;3.20;;;18.20;94.40;;;;;;10488243;28;20405;-67
2023/09/23 10:37:32;;;;;;;4.38;3.00;;;18.20;94.50;;;;;;10492061;28;20924;-68
2023/09/23 10:42:34;;;;;;;5.33;3.30;;;18.30;94.70;;;;;;10496470;28;20391;-67
2023/09/23 10:47:36;;;;;;;4.43;2.72;;;18.30;94.50;;;;;;10495835;28;20413;-67
2023/09/23 10:52:38;;;;;;;3.75;2.90;;;18.30;94.40;;;;;;10491139;28;20686;-67
2023/09/23 10:57:38;;;;;;;3.92;2.85;;;18.30;94.40;;;;;;10494626;28;20400;-67
2023/09/23 11:02:42;;;;;;;3.42;2.83;;;18.30;94.40;;;;;;10499834;28;20820;-67
2023/09/23 11:07:44;;;;;;;3.80;2.70;;;18.40;94.40;;;;;;10504796;28;20804;-67
2023/09/23 11:12:46;;;;;;;3.60;2.70;;;18.40;94.40;;;;;;10492587;28;20400;-67
2023/09/23 11:17:47;;;;;;;3.85;2.72;;;18.40;94.40;;;;;;10491269;28;20410;-67
2023/09/23 11:22:50;;;;;;;3.13;2.60;;;18.50;94.40;;;;;;10495166;28;21003;-67
2023/09/23 11:27:51;;;;;;;3.88;2.83;;;18.50;94.40;;;;;;10490963;28;20421;-67
2023/09/23 11:32:53;;;;;;;4.50;2.70;;;18.60;94.40;;;;;;10488830;28;20388;-67
2023/09/23 11:37:54;;;;;;;3.93;2.17;;;18.60;94.40;;;;;;10486962;28;20401;-68
2023/09/23 11:42:55;;;;;;;3.28;1.77;;;18.60;94.60;;;;;;10486926;28;20396;-69
2023/09/23 11:47:56;;;;;;;3.90;1.63;;;18.60;95.10;;;;;;10501447;28;20401;-70
2023/09/23 11:52:57;;;;;;;2.83;1.50;;;18.60;95.30;;;;;;10505103;28;20903;-69
2023/09/23 11:57:58;;;;;;;3.10;1.60;;;18.60;95.90;;;;;;10507038;28;20393;-67
2023/09/23 12:02:59;;;;;;;3.60;1.70;;;18.60;96.20;;;;;;10516076;28;20397;-68
2023/09/23 12:08:00;;;;;;;3.30;1.50;;;18.60;96.30;;;;;;10512451;28;20421;-69
2023/09/23 12:13:05;;;;;;;4.17;1.53;;;18.50;96.40;;;;;;10512015;28;20422;-70
2023/09/23 12:18:06;;;;;;;3.65;1.88;;;18.60;96.10;;;;;;10506214;28;20412;-70
2023/09/23 12:23:07;;;;;;;3.10;2.30;;;18.60;96.50;;;;;;10510125;28;20408;-69
2023/09/23 12:28:08;;;;;;;3.75;2.53;;;18.50;96.50;;;;;;10497062;28;20836;-69
2023/09/23 12:33:09;;;;;;;3.58;1.92;;;18.40;96.60;;;;;;10507354;28;20415;-69
2023/09/23 12:38:10;;;;;;;3.13;2.10;;;18.30;96.70;;;;;;10498454;28;20399;-69
2023/09/23 12:43:13;;;;;;;3.90;1.90;;;18.40;96.80;;;;;;10510315;28;20954;-69
2023/09/23 12:48:14;;;;;;;2.72;1.60;;;18.60;96.70;;;;;;10507181;28;20425;-69
2023/09/23 12:53:15;;;;;;;2.50;1.30;;;18.80;96.60;;;;;;10510348;28;20394;-69
2023/09/23 12:58:15;;;;;;;3.40;1.20;;;18.80;96.20;;;;;;10511106;28;20761;-69
2023/09/23 13:03:16;;;;;;;2.08;1.00;;;18.90;96.20;;;;;;10509081;28;20402;-69
2023/09/23 13:08:19;;;;;;;3.20;1.00;;;19.10;95.50;;;;;;10502228;28;20427;-69
2023/09/23 13:13:20;;;;;;;2.13;0.80;;;19.10;94.70;;;;;;10502301;28;20464;-69
2023/09/23 13:18:21;;;;;;;1.27;0.77;;;19.00;94.50;;;;;;10503903;28;20986;-68
2023/09/23 13:23:21;;;;;;;1.87;0.60;;;19.20;94.80;;;;;;10503989;28;20423;-72
2023/09/23 13:28:23;;;;;;;1.58;0.50;;;19.30;93.80;;;;;;10498215;28;20406;-71
2023/09/23 13:33:26;;;;;;;1.57;0.67;;;19.30;93.60;;;;;;10490148;28;20768;-71
2023/09/23 13:38:27;;;;;;;1.52;0.60;;;19.40;93.60;;;;;;10497368;28;20760;-70
2023/09/23 13:43:27;;;;;;;2.10;0.50;;;19.60;93.50;;;;;;10503018;28;20402;-70
2023/09/23 13:48:29;;;;;;;1.13;0.60;;;19.70;92.70;;;;;;10500133;28;20405;-70
2023/09/23 13:53:29;;;;;;;2.65;0.70;;;19.70;93.00;;;;;;10505269;28;20402;-70
2023/09/23 13:58:30;;;;;;;1.63;0.67;;;19.80;92.90;;;;;;10502669;28;20938;-70
2023/09/23 14:03:31;;;;;;;1.17;0.50;;;19.90;92.60;;;;;;10503237;28;20905;-71
2023/09/23 14:08:31;;;;;;;0.90;0.53;;;19.80;92.70;;;;;;10499731;28;20409;-70
2023/09/23 14:13:32;;;;;;;1.60;0.40;;;19.70;93.20;;;;;;10493033;28;20395;-70
2023/09/23 14:18:34;;;;;;;1.70;0.40;;;19.60;93.50;;;;;;10494621;28;20415;-70
2023/09/23 14:23:35;;;;;;;1.40;0.40;;;19.50;93.60;;;;;;10499505;28;20392;-70
2023/09/23 14:28:36;;;;;;;1.63;0.30;;;19.40;93.50;;;;;;10498528;28;20417;-70
2023/09/23 14:33:36;;;;;;;1.87;0.50;;;19.40;93.40;;;;;;10494168;28;20857;-70
2023/09/23 14:38:37;;;;;;;2.13;0.47;;;19.30;93.70;;;;;;10497680;28;20497;-70
2023/09/23 14:43:38;;;;;;;2.20;0.80;;;19.70;93.50;;;;;;10497602;28;20413;-70
2023/09/23 14:48:38;;;;;;;2.20;0.50;;;19.80;93.50;;;;;;10489400;28;20415;-72
2023/09/23 14:53:39;;;;;;;1.40;0.50;;;19.90;93.80;;;;;;10497427;28;20395;-72
2023/09/23 14:58:40;;;;;;;1.70;0.70;;;20.00;93.70;;;;;;10486661;28;20886;-72
2023/09/23 15:03:41;;;;;;;1.50;0.70;;;20.00;93.60;;;;;;10486009;28;20395;-73
2023/09/23 15:08:41;;;;;;;1.50;0.80;;;20.30;93.40;;;;;;10493031;28;20872;-72
2023/09/23 15:13:42;;;;;;;2.25;0.70;;;19.90;93.40;;;;;;10494526;28;20388;-72
2023/09/23 15:18:43;;;;;;;1.33;0.80;;;19.70;93.60;;;;;;10498103;28;20824;-72
2023/09/23 15:23:43;;;;;;;3.30;1.07;;;19.40;93.90;;;;;;10486282;28;20427;-72
2023/09/23 15:28:44;;;;;;;4.40;1.03;;;19.20;94.20;;;;;;10489923;28;20419;-73
2023/09/23 15:33:45;;;;;;;3.40;1.20;;;19.10;94.70;;;;;;10492940;28;20948;-73
2023/09/23 15:38:46;;;;;;;3.28;1.40;;;19.10;95.20;;;;;;10503562;28;20403;-73
2023/09/23 15:43:46;;;;;;;3.47;1.50;;;19.10;95.00;;;;;;10501164;28;20394;-70
2023/09/23 15:48:47;;;;;;;3.58;1.42;;;19.10;95.40;;;;;;10501874;28;20441;-70
2023/09/23 15:53:48;;;;;;;3.07;1.40;;;19.10;95.30;;;;;;10500851;28;20517;-70
2023/09/23 15:58:49;;;;;;;3.10;1.40;;;19.20;95.10;;;;;;10497119;28;20393;-69
2023/09/23 16:03:49;;;;;;;3.50;1.58;;;19.30;95.00;;;;;;10490221;28;20802;-68
2023/09/23 16:08:50;;;;;;;2.80;1.67;;;19.30;94.90;;;;;;10490803;28;20409;-68
2023/09/23 16:13:51;;;;;;;2.33;1.60;;;19.40;94.90;;;;;;10492944;28;20390;-68
2023/09/23 16:18:51;;;;;;;3.33;1.87;;;19.40;94.90;;;;;;10492694;28;20407;-69
2023/09/23 16:23:52;;;;;;;3.27;1.47;;;19.40;94.90;;;;;;10490261;28;20392;-67
2023/09/23 16:28:52;;;;;;;3.37;1.40;;;19.40;94.90;;;;;;10502107;28;20403;-69
2023/09/23 16:33:53;;;;;;;2.70;1.40;;;19.40;95.00;;;;;;10491303;28;20455;-68
2023/09/23 16:38:54;;;;;;;2.37;1.50;;;19.30;94.90;;;;;;10498571;28;20806;-69
2023/09/23 16:43:54;;;;;;;3.20;1.20;;;19.30;94.90;;;;;;10503210;28;20390;-73
2023/09/23 16:48:55;;;;;;;2.03;1.10;;;19.40;95.10;;;;;;10505670;28;20425;-68
2023/09/23 16:53:56;;;;;;;2.90;1.30;;;19.30;95.20;;;;;;10507848;28;20483;-68
2023/09/23 16:58:57;;;;;;;1.97;1.13;;;19.30;95.30;;;;;;10498371;28;20416;-69
2023/09/23 17:03:58;;;;;;;1.97;1.27;;;19.30;95.20;;;;;;10501490;28;20424;-68
2023/09/23 17:08:58;;;;;;;3.90;1.30;;;19.30;95.20;;;;;;10501911;28;20410;-68
2023/09/23 17:13:59;;;;;;;2.63;1.30;;;19.40;95.20;;;;;;10500114;28;20452;-69
2023/09/23 17:19:00;;;;;;;2.20;1.20;;;19.30;95.10;;;;;;10506534;28;20456;-68
2023/09/23 17:24:00;;;;;;;1.45;1.10;;;19.40;95.10;;;;;;10509736;28;20826;-69
2023/09/23 17:29:01;;;;;;;2.05;1.20;;;19.30;95.10;;;;;;10506482;28;20415;-68
2023/09/23 17:34:02;;;;;;;2.67;1.27;;;19.30;95.10;;;;;;10493800;28;20483;-69
2023/09/23 17:39:03;;;;;;;2.30;1.20;;;19.30;95.10;;;;;;10503567;28;20799;-68
2023/09/23 17:44:05;;;;;;;2.90;1.20;;;19.30;95.10;;;;;;10499556;28;20409;-68
2023/09/23 17:49:06;;;;;;;2.47;1.30;;;19.30;95.10;;;;;;10494907;28;20440;-68
2023/09/23 17:54:06;;;;;;;1.70;1.20;;;19.30;95.10;;;;;;10489013;28;20401;-69
2023/09/23 17:59:08;;;;;;;2.55;1.30;;;19.30;95.10;;;;;;10469639;28;20441;-69
2023/09/23 18:04:10;;;;;;;1.77;1.00;;;19.30;95.10;;;;;;10484891;28;20896;-69
2023/09/23 18:09:11;;;;;;;2.73;1.20;;;19.20;95.10;;;;;;10495282;28;20485;-68
2023/09/23 18:14:12;;;;;;;1.40;0.90;;;19.20;95.00;;;;;;10484986;28;20889;-67
2023/09/23 18:19:13;;;;;;;2.45;1.17;;;19.20;95.10;;;;;;10486951;28;20395;-69
2023/09/23 18:24:13;;;;;;;2.77;1.20;;;19.20;95.10;;;;;;10490360;28;20403;-69
2023/09/23 18:29:14;;;;;;;2.73;1.10;;;19.20;95.10;;;;;;10477947;28;20435;-68
2023/09/23 18:34:14;;;;;;;1.90;1.30;;;19.20;95.10;;;;;;10482342;28;20417;-69
2023/09/23 18:39:15;;;;;;;2.20;1.20;;;19.20;95.10;;;;;;10467538;28;20426;-68
2023/09/23 18:44:16;;;;;;;2.03;1.40;;;19.20;95.10;;;;;;10487890;28;20391;-68
2023/09/23 18:49:16;;;;;;;2.43;1.20;;;19.10;95.10;;;;;;10483253;28;20899;-69
2023/09/23 18:54:17;;;;;;;1.70;1.10;;;19.20;95.10;;;;;;10478774;28;20444;-68
2023/09/23 18:59:19;;;;;;;2.03;1.20;;;19.10;95.10;;;;;;10476877;28;20466;-67
2023/09/23 19:04:23;;;;;;;2.10;1.20;;;19.10;95.10;;;;;;10486285;28;20745;-68
2023/09/23 19:09:26;;;;;;;2.43;1.23;;;19.10;95.10;;;;;;10486191;28;20484;-68
2023/09/23 19:14:26;;;;;;;1.67;1.20;;;19.10;95.10;;;;;;10491487;28;20418;-69
2023/09/23 19:19:27;;;;;;;2.33;1.20;;;19.10;95.10;;;;;;10488606;28;20395;-68
2023/09/23 19:24:27;;;;;;;2.30;1.10;;;19.10;95.10;;;;;;10488452;28;20927;-67
2023/09/23 19:29:28;;;;;;;1.70;1.20;;;19.00;95.10;;;;;;10478998;28;20442;-69
2023/09/23 19:34:29;;;;;;;1.57;1.10;;;19.00;95.10;;;;;;10483566;28;20407;-67
2023/09/23 19:39:31;;;;;;;1.97;1.30;;;19.00;95.10;;;;;;10483514;28;20440;-68
2023/09/23 19:44:32;;;;;;;2.28;1.30;;;19.00;95.10;;;;;;10484622;28;20407;-67
2023/09/23 19:49:34;;;;;;;2.35;1.25;;;19.00;95.10;;;;;;10489687;28;20437;-69
2023/09/23 19:54:34;;;;;;;1.35;1.25;;;19.00;95.10;;;;;;10490140;28;20395;-68
2023/09/23 19:59:35;;;;;;;1.77;1.10;;;19.00;95.10;;;;;;10484135;28;20407;-69
2023/09/23 20:04:36;;;;;;;1.85;1.20;;;19.00;95.20;;;;;;10482993;28;20391;-68
2023/09/23 20:09:36;;;;;;;2.30;1.37;;;18.90;95.10;;;;;;10486891;28;20921;-68
2023/09/23 20:14:38;;;;;;;1.83;1.33;;;18.90;95.20;;;;;;10500729;28;20833;-68
2023/09/23 20:19:38;;;;;;;1.48;1.10;;;18.90;95.50;;;;;;10496059;28;20437;-69
2023/09/23 20:24:39;;;;;;;2.00;1.40;;;18.90;95.20;;;;;;10495754;28;20488;-69
2023/09/23 20:29:43;;;;;;;2.20;1.43;;;18.90;95.30;;;;;;10492333;28;20438;-69
2023/09/23 20:34:44;;;;;;;1.73;1.30;;;18.90;95.30;;;;;;10489235;28;20407;-69
2023/09/23 20:39:45;;;;;;;2.00;1.30;;;18.90;95.30;;;;;;10490216;28;20399;-66
2023/09/23 20:44:48;;;;;;;2.50;1.50;;;18.90;95.40;;;;;;10492057;28;20492;-69
2023/09/23 20:49:50;;;;;;;2.08;1.50;;;18.90;95.40;;;;;;10493127;28;20642;-69
2023/09/23 20:54:52;;;;;;;1.83;1.40;;;18.80;95.30;;;;;;10497739;28;20397;-69
2023/09/23 20:59:52;;;;;;;1.90;1.30;;;18.80;95.40;;;;;;10487788;28;21044;-69
2023/09/23 21:04:54;;;;;;;1.57;1.13;;;18.80;95.40;;;;;;10495300;28;20410;-68
2023/09/23 21:09:55;;;;;;;2.20;1.40;;;18.80;95.40;;;;;;10493553;28;21138;-69
2023/09/23 21:14:55;;;;;;;1.87;1.30;;;18.80;95.50;;;;;;10493314;28;20392;-67
2023/09/23 21:19:56;;;;;;;1.93;1.23;;;18.80;95.50;;;;;;10488769;28;20936;-69
2023/09/23 21:24:57;;;;;;;2.23;1.40;;;18.80;95.50;;;;;;10497815;28;20406;-69
2023/09/23 21:29:57;;;;;;;1.80;1.30;;;18.80;95.50;;;;;;10498193;28;20464;-67
2023/09/23 21:34:58;;;;;;;1.83;1.40;;;18.70;95.50;;;;;;10495365;28;20500;-69
2023/09/23 21:39:59;;;;;;;1.80;1.37;;;18.70;95.50;;;;;;10497314;28;20400;-68
2023/09/23 21:44:59;;;;;;;2.20;1.20;;;18.70;95.50;;;;;;10490464;28;20433;-75
2023/09/23 21:50:00;;;;;;;1.90;1.20;;;18.70;95.50;;;;;;10494623;28;20740;-69
2023/09/23 21:55:02;;;;;;;2.30;1.20;;;18.70;95.60;;;;;;10493271;28;20404;-69
2023/09/23 22:00:25;;;;;;;2.80;1.40;;;18.70;95.60;;;;;;10479517;28;20427;-69
2023/09/23 22:05:30;;;;;;;2.00;1.20;;;18.60;95.60;;;;;;10485734;28;20626;-68
2023/09/23 22:10:31;;;;;;;1.60;1.20;;;18.60;95.60;;;;;;10492306;28;20701;-69
2023/09/23 22:15:32;;;;;;;2.00;1.37;;;18.60;95.60;;;;;;10492442;28;20418;-69
2023/09/23 22:20:32;;;;;;;2.23;1.30;;;18.60;95.60;;;;;;10496123;28;20788;-68
2023/09/23 22:25:33;;;;;;;1.60;1.27;;;18.60;96.00;;;;;;10494606;28;20399;-68
2023/09/23 22:30:34;;;;;;;2.13;1.10;;;18.60;95.60;;;;;;10493568;28;20421;-70
2023/09/23 22:35:34;;;;;;;1.73;1.10;;;18.60;95.60;;;;;;10498151;28;20408;-69
2023/09/23 22:40:35;;;;;;;2.03;1.20;;;18.50;95.60;;;;;;10489964;28;20399;-69
2023/09/23 22:45:37;;;;;;;2.85;1.15;;;18.50;95.60;;;;;;10495802;28;20418;-69
2023/09/23 22:50:40;;;;;;;2.42;1.20;;;18.50;95.60;;;;;;10505277;28;20420;-69
2023/09/23 22:55:41;;;;;;;3.30;1.20;;;18.50;95.50;;;;;;10493381;28;20408;-68
2023/09/23 23:00:42;;;;;;;1.53;1.10;;;18.50;95.60;;;;;;10490424;28;20403;-69
2023/09/23 23:05:42;;;;;;;2.20;1.07;;;18.40;95.50;;;;;;10497870;28;20402;-69
2023/09/23 23:10:43;;;;;;;2.03;1.00;;;18.40;95.40;;;;;;10506287;28;20396;-69
2023/09/23 23:15:44;;;;;;;1.60;1.07;;;18.40;95.40;;;;;;10500205;28;20928;-70
2023/09/23 23:20:46;;;;;;;1.13;0.80;;;18.40;95.40;;;;;;10497892;28;20404;-66
2023/09/23 23:25:48;;;;;;;2.03;1.20;;;18.40;95.40;;;;;;10492273;28;21954;-69
2023/09/23 23:30:48;;;;;;;1.67;1.03;;;18.40;95.30;;;;;;10494865;28;20402;-69
2023/09/23 23:35:51;;;;;;;1.65;1.00;;;19.20;95.50;;;;;;10502130;28;20405;-68
2023/09/23 23:40:55;;;;;;;2.93;1.20;;;18.40;95.30;;;;;;10500641;28;20402;-68
2023/09/23 23:46:02;;;;;;;2.45;1.10;;;18.30;95.30;;;;;;10508549;28;20414;-68
2023/09/23 23:51:10;;;;;;;2.10;1.23;;;18.30;95.30;;;;;;10509772;28;20428;-68
2023/09/23 23:56:12;;;;;;;1.70;1.10;;;18.30;95.30;;;;;;10504679;28;20400;-69
